Observations for LAKENHEATH RAF, United Kingdom (EGUL)

EGUL 130856Z AUTO 09006KT 9999 OVC037 05/M01 A3008 RMK AO2 SLP190 T00481006 52009 $ 
EGUL 130756Z AUTO 10009KT 9999 OVC039 05/M01 A3007 RMK AO2 SLP186 T00461008 $   
EGUL 130656Z AUTO 11008KT 9999 BKN042 05/M01 A3006 RMK AO2 SLP183 T00461008 $   
EGUL 130556Z AUTO 11007KT 9999 OVC040 05/M01 A3006 RMK AO2 SLP183 T00471009 10056 20046 57008 $ 
EGUL 130456Z AUTO 12009KT 9999 OVC039 05/M01 A3006 RMK AO2 SLP183 T00481012 $   
EGUL 130356Z AUTO 12007KT 9999 OVC036 05/M01 A3007 RMK AO2 SLP186 T00481008 $   
EGUL 130256Z AUTO 11009KT 9999 OVC035 05/M01 A3008 RMK AO2 SLP190 T00481006 57008 $ 
EGUL 130156Z AUTO 11009KT 9999 OVC032 05/00 A3009 RMK AO2 SLP193 T00501004 $
EGUL 130141Z AUTO 12007KT 9999 OVC032 05/00 A3010 RMK AO2 SLP196 $
EGUL 130056Z AUTO 13008KT 9999 OVC027 05/00 A3010 RMK AO2 SLP196 T00521004 $
EGUL 130026Z AUTO 12010KT 9999 BKN029 OVC033 06/00 A3010 RMK AO2 SLP196 $
EGUL 122356Z AUTO 12013G19KT 9999 OVC036 06/00 A3011 RMK AO2 SLP200 T00560004 10057 20010 400750008 56010 $ 
EGUL 122326Z AUTO 12009KT 9999 BKN028 OVC034 06/01 A3011 RMK AO2 CIG 027 RWY24 SLP200 $
EGUL 122341Z AUTO 12009KT 9999 FEW027 OVC038 06/01 A3011 RMK AO2 SLP200 $
EGUL 122256Z AUTO 11009KT 9999 FEW029 OVC037 06/00 A3011 RMK AO2 SLP200 T00560004 $ 
EGUL 122156Z AUTO 12008KT 9999 OVC041 06/00 A3012 RMK AO2 SLP203 T00561003 $
EGUL 122056Z AUTO 11007KT 9999 OVC038 05/00 A3014 RMK AO2 SLP210 T00531005 57010 $  
EGUL 121956Z AUTO 11005KT 9999 OVC038 05/00 A3015 RMK AO2 SLP213 T00501004 $
EGUL 121856Z 11006KT 9999 OVC039 05/M01 A3016 RMK AO2A SLP217 T00481006 $   
EGUL 121756Z 10005KT 9999 BKN044 01/M03 A3017 RMK AO2A SLP220 T00091027 10075 20008 58007 $ 
EGUL 121656Z COR 12004KT 9999 CLR 03/M03 A3017 RMK AO2A SLP220 T00311026 $ COR 1725 
EGUL 121556Z AUTO 13006KT 9999 CLR 04/M02 A3018 RMK AO2 SLP224 T00421024 $  
EGUL 121456Z AUTO 13007KT 9999 CLR 06/M02 A3019 RMK AO2 SLP227 T00621019 57009 $
EGUL 121356Z AUTO 15013G17KT 9999 CLR 07/M02 A3020 RMK AO2 SLP230 T00691025 $   
EGUL 121256Z AUTO 13011KT 9999 CLR 07/M02 A3021 RMK AO2 SLP234 T00741016 $  
EGUL 121156Z COR 14010KT 9999 CLR 07/M01 A3021 RMK AO2A SLP234 T00721008 10073 20039 58004 $ COR 1207   
EGUL 121056Z 14010KT 9999 CLR 07/00 A3022 RMK AO2A SLP237 T00721003 $   
EGUL 120956Z 14009KT 9999 CLR 06/01 A3023 RMK AO2A SLP241 T00610006 $   
EGUL 120856Z 14009KT 9999 SCT050 BKN150 05/01 A3022 RMK AO2A SLP237 T00530009 52007 $